createdAt,value
2022-10-20T00:01:14.291Z,13.67
2022-10-20T00:03:41.973Z,13.67
2022-10-20T00:06:11.964Z,13.67
2022-10-20T00:08:40.207Z,13.68
2022-10-20T00:11:10.513Z,13.67
2022-10-20T00:13:39.156Z,13.62
2022-10-20T00:16:08.137Z,13.63
2022-10-20T00:18:36.152Z,13.64
2022-10-20T00:21:11.447Z,13.63
2022-10-20T00:23:39.124Z,13.63
2022-10-20T00:26:10.350Z,13.63
2022-10-20T00:28:38.155Z,13.62
2022-10-20T00:31:07.084Z,13.61
2022-10-20T00:33:35.619Z,13.61
2022-10-20T00:36:04.824Z,13.60
2022-10-20T00:38:32.599Z,13.60
2022-10-20T00:41:03.006Z,13.59
2022-10-20T00:43:44.784Z,13.57
2022-10-20T00:46:13.694Z,13.57
2022-10-20T00:48:43.466Z,13.55
2022-10-20T00:51:15.986Z,13.55
2022-10-20T00:53:45.215Z,13.53
2022-10-20T00:56:13.486Z,13.54
2022-10-20T00:58:41.171Z,13.55
2022-10-20T01:01:12.243Z,13.55
2022-10-20T01:03:45.775Z,13.53
2022-10-20T01:06:15.039Z,13.52
2022-10-20T01:08:42.741Z,13.53
2022-10-20T01:11:27.261Z,13.52
2022-10-20T01:14:07.058Z,13.52
2022-10-20T01:16:41.907Z,13.50
2022-10-20T01:19:30.619Z,13.48
2022-10-20T01:22:14.384Z,13.48
2022-10-20T01:24:56.358Z,13.48
2022-10-20T01:27:34.455Z,13.47
2022-10-20T01:30:10.708Z,13.47
2022-10-20T01:32:51.069Z,13.46
2022-10-20T01:35:28.595Z,13.45
2022-10-20T01:38:04.611Z,13.44
2022-10-20T01:40:40.715Z,13.44
2022-10-20T01:43:14.982Z,13.43
2022-10-20T01:45:47.273Z,13.44
2022-10-20T01:48:19.166Z,13.44
2022-10-20T01:50:48.562Z,13.42
2022-10-20T01:53:16.322Z,13.43
2022-10-20T01:55:44.586Z,13.44
2022-10-20T01:58:44.350Z,13.44
2022-10-20T02:01:18.672Z,13.45
2022-10-20T02:03:53.547Z,13.43
2022-10-20T02:06:33.924Z,13.43
2022-10-20T02:09:05.498Z,13.42
2022-10-20T02:11:43.727Z,13.38
2022-10-20T02:14:15.655Z,13.40
2022-10-20T02:16:48.206Z,13.41
2022-10-20T02:19:19.673Z,13.39
2022-10-20T02:21:48.566Z,13.40
2022-10-20T02:24:18.387Z,13.39
2022-10-20T02:26:46.807Z,13.39
2022-10-20T02:29:18.952Z,13.38
2022-10-20T02:31:48.031Z,13.38
2022-10-20T02:34:16.070Z,13.33
2022-10-20T02:36:44.663Z,13.33
2022-10-20T02:39:12.761Z,13.36
2022-10-20T02:41:40.395Z,13.35
2022-10-20T02:44:08.073Z,13.35
2022-10-20T02:46:37.054Z,13.35
2022-10-20T02:49:04.735Z,13.35
2022-10-20T02:51:32.406Z,13.34
2022-10-20T02:54:00.020Z,13.33
2022-10-20T02:56:30.290Z,13.33
2022-10-20T02:58:58.840Z,13.32
2022-10-20T03:01:26.729Z,13.32
2022-10-20T03:03:59.521Z,13.30
2022-10-20T03:06:27.751Z,13.31
2022-10-20T03:08:55.443Z,13.31
2022-10-20T03:11:23.471Z,13.30
2022-10-20T03:13:51.175Z,13.30
2022-10-20T03:16:18.802Z,13.29
2022-10-20T03:18:46.458Z,13.29
2022-10-20T03:21:15.510Z,13.28
2022-10-20T03:23:43.199Z,13.28
2022-10-20T03:26:12.379Z,13.24
2022-10-20T03:28:40.947Z,13.29
2022-10-20T03:31:09.361Z,13.29
2022-10-20T03:33:37.164Z,13.25
2022-10-20T03:36:05.682Z,13.30
2022-10-20T03:38:34.717Z,13.30
2022-10-20T03:43:35.151Z,13.30
2022-10-20T03:46:04.382Z,13.30
2022-10-20T03:48:32.048Z,13.29
2022-10-20T03:51:00.718Z,13.30
2022-10-20T03:53:28.564Z,13.30
2022-10-20T03:55:57.577Z,13.30
2022-10-20T03:58:25.640Z,13.27
2022-10-20T04:00:53.427Z,13.29
2022-10-20T04:03:21.105Z,13.30
2022-10-20T04:05:48.748Z,13.29
2022-10-20T04:08:16.517Z,13.29
2022-10-20T04:10:44.799Z,13.28
2022-10-20T04:13:13.801Z,13.28
2022-10-20T04:15:41.523Z,13.28
2022-10-20T04:18:09.181Z,13.29
2022-10-20T04:20:39.302Z,13.28
2022-10-20T04:23:09.769Z,13.27
2022-10-20T04:25:45.409Z,13.26
2022-10-20T04:28:15.761Z,13.26
2022-10-20T04:30:44.134Z,13.26
2022-10-20T04:36:52.538Z,13.25
2022-10-20T04:39:20.216Z,13.25
2022-10-20T04:41:47.886Z,13.25
2022-10-20T04:44:17.060Z,13.24
2022-10-20T04:46:44.951Z,13.21
2022-10-20T04:49:12.601Z,13.25
2022-10-20T04:51:40.234Z,13.25
2022-10-20T04:54:08.037Z,13.23
2022-10-20T04:56:35.680Z,13.23
2022-10-20T04:59:03.383Z,13.25
2022-10-20T05:01:33.202Z,13.23
2022-10-20T05:04:00.887Z,13.22
2022-10-20T05:06:30.807Z,13.22
2022-10-20T05:09:00.750Z,13.21
2022-10-20T05:11:29.917Z,13.21
2022-10-20T05:13:58.394Z,13.22
2022-10-20T05:16:26.283Z,13.23
2022-10-20T05:18:57.209Z,13.22
2022-10-20T05:21:26.372Z,13.22
2022-10-20T05:23:56.873Z,13.20
2022-10-20T05:26:25.587Z,13.22
2022-10-20T05:28:54.034Z,13.22
2022-10-20T05:31:23.578Z,13.22
2022-10-20T05:33:53.037Z,13.22
2022-10-20T05:36:24.666Z,13.21
2022-10-20T05:38:53.811Z,13.21
2022-10-20T05:41:23.930Z,13.21
2022-10-20T05:43:53.022Z,13.21
2022-10-20T05:46:21.682Z,13.19
2022-10-20T05:48:49.392Z,13.20
2022-10-20T05:51:19.197Z,13.19
2022-10-20T05:53:48.617Z,13.19
2022-10-20T05:56:21.530Z,13.19
2022-10-20T05:58:49.489Z,13.19
2022-10-20T06:01:20.401Z,13.19
2022-10-20T06:03:49.067Z,13.20
2022-10-20T06:06:17.220Z,13.17
2022-10-20T06:08:45.009Z,13.17
2022-10-20T06:11:15.884Z,13.16
2022-10-20T06:13:47.070Z,13.17
2022-10-20T06:16:19.812Z,13.17
2022-10-20T06:18:47.692Z,13.15
2022-10-20T06:21:17.483Z,13.16
2022-10-20T06:23:45.206Z,13.15
2022-10-20T06:26:17.422Z,13.16
2022-10-20T06:28:46.267Z,13.15
2022-10-20T06:31:16.515Z,13.15
2022-10-20T06:33:45.135Z,13.14
2022-10-20T06:36:13.450Z,13.14
2022-10-20T06:38:41.749Z,13.14
2022-10-20T06:41:12.528Z,13.14
2022-10-20T06:43:41.706Z,13.13
2022-10-20T06:46:12.743Z,13.13
2022-10-20T06:48:40.740Z,13.14
2022-10-20T06:51:11.519Z,13.14
2022-10-20T06:53:42.741Z,13.15
2022-10-20T06:56:15.782Z,13.14
2022-10-20T06:58:46.458Z,13.15
2022-10-20T07:01:15.714Z,13.16
2022-10-20T07:03:44.650Z,13.15
2022-10-20T07:06:15.636Z,13.16
2022-10-20T07:08:43.357Z,13.18
2022-10-20T07:11:13.793Z,13.18
2022-10-20T07:13:42.148Z,13.18
2022-10-20T07:16:13.865Z,13.18
2022-10-20T07:18:41.889Z,13.18
2022-10-20T07:21:12.548Z,13.19
2022-10-20T07:23:40.459Z,13.21
2022-10-20T07:26:11.493Z,13.19
2022-10-20T07:28:41.917Z,13.19
2022-10-20T07:31:13.495Z,13.16
2022-10-20T07:33:41.991Z,13.19
2022-10-20T07:36:14.977Z,13.20
2022-10-20T07:38:42.656Z,13.20
2022-10-20T07:41:10.841Z,13.21
2022-10-20T07:43:39.562Z,13.19
2022-10-20T07:46:08.186Z,13.12
2022-10-20T07:48:37.912Z,13.19
2022-10-20T07:51:16.542Z,13.18
2022-10-20T07:53:44.904Z,13.20
2022-10-20T07:56:12.941Z,13.18
2022-10-20T07:58:40.923Z,13.20
2022-10-20T08:01:08.966Z,13.19
2022-10-20T08:03:38.394Z,13.24
2022-10-20T08:06:07.200Z,13.23
2022-10-20T08:08:35.118Z,13.23
2022-10-20T08:11:02.906Z,13.24
2022-10-20T08:13:32.582Z,13.25
2022-10-20T08:18:57.852Z,13.30
2022-10-20T08:21:25.506Z,13.30
2022-10-20T08:23:53.378Z,13.29
2022-10-20T08:26:23.208Z,13.28
2022-10-20T08:28:53.054Z,13.27
2022-10-20T08:31:21.599Z,13.29
2022-10-20T08:33:52.809Z,13.30
2022-10-20T08:36:21.541Z,13.33
2022-10-20T08:38:49.666Z,13.34
2022-10-20T08:41:21.466Z,13.37
2022-10-20T08:43:51.687Z,13.38
2022-10-20T08:46:22.003Z,13.36
2022-10-20T08:48:51.407Z,13.38
2022-10-20T08:51:20.858Z,13.38
2022-10-20T08:53:50.358Z,13.38
2022-10-20T08:56:21.097Z,13.37
2022-10-20T08:58:48.766Z,13.41
2022-10-20T09:01:22.059Z,13.42
2022-10-20T09:03:55.841Z,13.42
2022-10-20T09:06:23.767Z,13.44
2022-10-20T09:08:52.386Z,13.39
2022-10-20T09:11:24.195Z,13.43
2022-10-20T09:13:52.064Z,13.46
2022-10-20T09:16:35.001Z,13.47
2022-10-20T09:19:17.863Z,13.48
2022-10-20T09:21:48.311Z,13.52
2022-10-20T09:24:15.998Z,13.53
2022-10-20T09:26:58.054Z,13.54
2022-10-20T09:29:36.648Z,13.38
2022-10-20T09:32:27.283Z,13.56
2022-10-20T09:35:12.147Z,13.55
2022-10-20T09:37:40.075Z,13.58
2022-10-20T09:40:16.080Z,13.58
2022-10-20T09:42:50.304Z,13.58
2022-10-20T09:45:22.060Z,13.60
2022-10-20T09:47:53.284Z,13.60
2022-10-20T09:50:28.365Z,13.59
2022-10-20T09:52:57.085Z,13.61
2022-10-20T09:55:29.303Z,13.65
2022-10-20T09:57:59.110Z,13.64
2022-10-20T10:00:38.789Z,13.65
2022-10-20T10:03:21.307Z,13.66
2022-10-20T10:05:52.929Z,13.68
2022-10-20T10:08:21.757Z,13.67
2022-10-20T10:11:00.602Z,13.68
2022-10-20T10:13:31.506Z,13.69
2022-10-20T10:16:06.153Z,13.68
2022-10-20T10:18:35.645Z,13.68
2022-10-20T10:21:07.469Z,13.68
2022-10-20T10:23:40.904Z,13.68
2022-10-20T10:26:50.121Z,13.70
2022-10-20T10:29:20.374Z,13.68
2022-10-20T10:31:53.372Z,13.68
2022-10-20T10:34:46.055Z,13.70
2022-10-20T10:37:17.961Z,13.69
2022-10-20T10:39:45.672Z,13.70
2022-10-20T10:42:39.894Z,13.72
2022-10-20T10:45:35.446Z,13.73
2022-10-20T10:48:35.673Z,13.75
2022-10-20T10:51:09.804Z,13.76
2022-10-20T10:53:54.679Z,13.76
2022-10-20T10:56:31.594Z,13.78
2022-10-20T10:59:06.172Z,13.79
2022-10-20T11:01:51.421Z,13.80
2022-10-20T11:04:44.322Z,13.79
2022-10-20T11:07:23.778Z,13.82
2022-10-20T11:10:04.395Z,13.81
2022-10-20T11:12:45.074Z,13.87
2022-10-20T11:15:25.650Z,14.00
2022-10-20T11:18:02.757Z,14.18
2022-10-20T11:20:39.535Z,14.37
2022-10-20T11:23:22.168Z,14.55
2022-10-20T11:25:55.732Z,14.74
2022-10-20T11:28:32.271Z,14.95
2022-10-20T11:31:00.792Z,15.05
2022-10-20T11:33:36.840Z,15.11
2022-10-20T11:36:13.841Z,15.09
2022-10-20T11:38:45.660Z,15.03
2022-10-20T11:41:19.112Z,14.93
2022-10-20T11:43:51.706Z,14.79
2022-10-20T11:46:22.903Z,14.68
2022-10-20T11:48:52.507Z,14.66
2022-10-20T11:51:40.205Z,14.62
2022-10-20T11:54:22.262Z,14.55
2022-10-20T11:57:01.581Z,14.54
2022-10-20T11:59:51.807Z,14.48
2022-10-20T12:02:40.295Z,14.49
2022-10-20T12:05:36.627Z,14.44
2022-10-20T12:08:37.341Z,14.44
2022-10-20T12:11:13.478Z,14.40
2022-10-20T12:13:53.431Z,14.41
2022-10-20T12:16:54.872Z,14.39
2022-10-20T12:19:24.519Z,14.38
2022-10-20T12:21:56.718Z,14.39
2022-10-20T12:24:33.547Z,14.37
2022-10-20T12:27:19.922Z,14.35
2022-10-20T12:30:01.017Z,14.34
2022-10-20T12:32:57.560Z,14.32
2022-10-20T12:36:00.962Z,14.32
2022-10-20T12:38:30.960Z,14.31
2022-10-20T12:41:03.308Z,14.23
2022-10-20T12:43:49.722Z,14.32
2022-10-20T12:46:22.926Z,14.29
2022-10-20T12:48:57.391Z,14.35
2022-10-20T12:51:33.708Z,14.48
2022-10-20T12:54:06.626Z,14.44
2022-10-20T12:56:38.540Z,14.46
2022-10-20T12:59:38.947Z,14.54
2022-10-20T13:03:00.910Z,14.55
2022-10-20T13:05:48.578Z,14.49
2022-10-20T13:08:31.421Z,14.48
2022-10-20T13:11:32.388Z,14.46
2022-10-20T13:14:05.468Z,14.46
2022-10-20T13:16:33.972Z,14.47
2022-10-20T13:19:02.336Z,14.51
2022-10-20T13:21:34.092Z,14.53
2022-10-20T13:24:15.049Z,14.48
2022-10-20T13:26:51.622Z,14.57
2022-10-20T13:29:25.418Z,14.59
2022-10-20T13:32:04.140Z,14.59
2022-10-20T13:34:42.788Z,14.58
2022-10-20T13:37:23.895Z,14.63
2022-10-20T13:40:02.000Z,14.63
2022-10-20T13:42:43.712Z,14.64
2022-10-20T13:45:22.132Z,14.63
2022-10-20T13:47:53.290Z,14.64
2022-10-20T13:50:24.384Z,14.64
2022-10-20T13:52:56.161Z,14.65
2022-10-20T13:55:27.365Z,14.67
2022-10-20T13:57:58.073Z,14.68
2022-10-20T14:00:28.917Z,14.77
2022-10-20T14:03:02.306Z,14.75
2022-10-20T14:05:31.998Z,14.76
2022-10-20T14:08:06.228Z,14.75
2022-10-20T14:10:40.646Z,14.76
2022-10-20T14:13:11.668Z,14.77
2022-10-20T14:15:39.865Z,14.77
2022-10-20T14:18:09.564Z,14.78
2022-10-20T14:20:38.798Z,14.79
2022-10-20T14:23:08.563Z,14.82
2022-10-20T14:25:38.641Z,14.83
2022-10-20T14:28:07.760Z,14.85
2022-10-20T14:30:40.214Z,14.86
2022-10-20T14:33:16.169Z,14.86
2022-10-20T14:35:46.635Z,14.87
2022-10-20T14:38:21.465Z,14.90
2022-10-20T14:40:53.951Z,14.94
2022-10-20T14:43:28.628Z,14.94
2022-10-20T14:45:59.496Z,14.97
2022-10-20T14:48:34.920Z,14.96
2022-10-20T14:51:03.172Z,14.98
2022-10-20T14:53:34.125Z,14.97
2022-10-20T14:56:03.206Z,14.98
2022-10-20T14:58:34.440Z,14.98
2022-10-20T15:01:32.104Z,14.98
2022-10-20T15:04:16.068Z,15.00
2022-10-20T15:06:44.760Z,15.02
2022-10-20T15:09:21.044Z,15.02
2022-10-20T15:11:49.326Z,15.02
2022-10-20T15:14:17.897Z,15.04
2022-10-20T15:16:48.169Z,15.04
2022-10-20T15:19:34.549Z,15.06
2022-10-20T15:22:10.694Z,15.06
2022-10-20T15:24:40.342Z,15.00
2022-10-20T15:27:14.776Z,15.07
2022-10-20T15:29:49.886Z,15.09
2022-10-20T15:32:18.147Z,15.10
2022-10-20T15:34:45.841Z,15.10
2022-10-20T15:37:13.530Z,15.10
2022-10-20T15:39:42.554Z,15.10
2022-10-20T15:42:12.059Z,15.11
2022-10-20T15:44:39.681Z,15.13
2022-10-20T15:47:09.966Z,15.15
2022-10-20T15:49:37.651Z,15.17
2022-10-20T15:52:05.407Z,15.19
2022-10-20T15:54:33.060Z,15.20
2022-10-20T15:57:02.049Z,15.21
2022-10-20T15:59:29.673Z,15.21
2022-10-20T16:01:57.323Z,15.21
2022-10-20T16:04:26.922Z,15.22
2022-10-20T16:06:57.905Z,15.22
2022-10-20T16:09:28.109Z,15.23
2022-10-20T16:11:55.836Z,15.23
2022-10-20T16:14:24.939Z,15.24
2022-10-20T16:16:52.678Z,15.25
2022-10-20T16:19:20.405Z,15.25
2022-10-20T16:21:48.069Z,15.25
2022-10-20T16:24:15.714Z,15.25
2022-10-20T16:26:43.358Z,15.25
2022-10-20T16:29:11.050Z,15.24
2022-10-20T16:31:40.075Z,15.25
2022-10-20T16:34:07.727Z,15.26
2022-10-20T16:36:35.446Z,15.25
2022-10-20T16:39:03.169Z,15.26
2022-10-20T16:41:30.814Z,15.25
2022-10-20T16:44:00.899Z,15.26
2022-10-20T16:46:29.002Z,15.26
2022-10-20T16:48:57.999Z,15.24
2022-10-20T16:51:25.818Z,15.25
2022-10-20T16:53:57.269Z,15.25
2022-10-20T16:56:27.060Z,15.25
2022-10-20T16:58:54.727Z,15.26
2022-10-20T17:01:23.766Z,15.26
2022-10-20T17:03:53.089Z,15.25
2022-10-20T17:06:25.142Z,15.25
2022-10-20T17:08:53.858Z,15.25
2022-10-20T17:11:23.237Z,15.23
2022-10-20T17:13:51.823Z,15.26
2022-10-20T17:16:24.836Z,15.25
2022-10-20T17:18:55.931Z,15.25
2022-10-20T17:21:25.627Z,15.25
2022-10-20T17:23:53.276Z,15.25
2022-10-20T17:26:22.934Z,15.26
2022-10-20T17:28:52.119Z,15.25
2022-10-20T17:31:19.917Z,15.25
2022-10-20T17:33:48.233Z,15.25
2022-10-20T17:36:16.683Z,15.26
2022-10-20T17:38:46.005Z,15.23
2022-10-20T17:41:15.645Z,15.27
2022-10-20T17:43:43.660Z,15.25
2022-10-20T17:46:14.724Z,15.25
2022-10-20T17:48:42.581Z,15.21
2022-10-20T17:51:12.903Z,15.24
2022-10-20T17:53:43.513Z,15.24
2022-10-20T17:56:14.190Z,15.25
2022-10-20T17:58:43.460Z,15.25
2022-10-20T18:01:12.816Z,15.24
2022-10-20T18:03:41.288Z,15.24
2022-10-20T18:06:11.246Z,15.24
2022-10-20T18:08:39.492Z,15.23
2022-10-20T18:11:12.042Z,15.23
2022-10-20T18:13:40.425Z,15.24
2022-10-20T18:16:10.250Z,15.23
2022-10-20T18:18:39.263Z,15.23
2022-10-20T18:21:08.410Z,15.25
2022-10-20T18:23:37.103Z,15.27
2022-10-20T18:26:07.557Z,15.28
2022-10-20T18:28:39.537Z,15.29
2022-10-20T18:31:10.204Z,15.29
2022-10-20T18:33:37.946Z,15.30
2022-10-20T18:36:07.430Z,15.25
2022-10-20T18:38:36.707Z,15.32
2022-10-20T18:41:05.681Z,15.33
2022-10-20T18:43:33.741Z,15.32
2022-10-20T18:46:03.881Z,15.32
2022-10-20T18:48:32.356Z,15.31
2022-10-20T18:51:01.444Z,15.33
2022-10-20T18:53:30.347Z,15.34
2022-10-20T18:56:02.071Z,15.36
2022-10-20T18:58:31.273Z,15.32
2022-10-20T19:01:00.639Z,15.37
2022-10-20T19:03:31.742Z,15.37
2022-10-20T19:06:00.377Z,15.39
2022-10-20T19:08:28.351Z,15.38
2022-10-20T19:10:56.575Z,15.37
2022-10-20T19:13:26.611Z,15.37
2022-10-20T19:15:54.528Z,15.35
2022-10-20T19:18:22.828Z,15.37
2022-10-20T19:20:59.417Z,15.36
2022-10-20T19:23:27.539Z,15.37
2022-10-20T19:26:06.272Z,15.36
2022-10-20T19:28:36.655Z,15.36
2022-10-20T19:31:18.463Z,15.35
2022-10-20T19:33:50.144Z,15.36
2022-10-20T19:36:19.268Z,15.35
2022-10-20T19:38:47.450Z,15.35
2022-10-20T19:41:15.406Z,15.35
2022-10-20T19:43:43.198Z,15.32
2022-10-20T19:46:14.819Z,15.34
2022-10-20T19:48:42.798Z,15.34
2022-10-20T19:51:10.558Z,15.33
2022-10-20T19:53:40.407Z,15.33
2022-10-20T19:56:09.443Z,15.33
2022-10-20T19:58:40.342Z,15.32
2022-10-20T20:01:11.044Z,15.30
2022-10-20T20:03:38.781Z,15.30
2022-10-20T20:06:09.247Z,15.30
2022-10-20T20:08:37.793Z,15.27
2022-10-20T20:11:07.191Z,15.29
2022-10-20T20:13:34.838Z,15.29
2022-10-20T20:16:07.277Z,15.28
2022-10-20T20:18:35.633Z,15.28
2022-10-20T20:21:05.196Z,15.25
2022-10-20T20:23:47.702Z,15.27
2022-10-20T20:26:23.394Z,15.27
2022-10-20T20:28:53.381Z,15.26
2022-10-20T20:31:21.982Z,15.26
2022-10-20T20:33:50.063Z,15.26
2022-10-20T20:36:18.050Z,15.25
2022-10-20T20:38:46.038Z,15.24
2022-10-20T20:41:15.825Z,15.24
2022-10-20T20:43:46.033Z,15.24
2022-10-20T20:46:15.137Z,15.21
2022-10-20T20:48:43.112Z,15.23
2022-10-20T20:51:11.376Z,15.23
2022-10-20T20:53:39.909Z,15.22
2022-10-20T20:56:09.508Z,15.23
2022-10-20T20:58:37.845Z,15.22
2022-10-20T21:01:08.309Z,15.21
2022-10-20T21:03:37.161Z,15.21
2022-10-20T21:06:05.526Z,15.22
2022-10-20T21:08:33.696Z,15.21
2022-10-20T21:11:08.050Z,15.21
2022-10-20T21:13:36.496Z,15.21
2022-10-20T21:16:14.042Z,15.17
2022-10-20T21:18:43.603Z,15.21
2022-10-20T21:21:12.989Z,15.19
2022-10-20T21:23:41.130Z,15.19
2022-10-20T21:26:10.007Z,15.18
2022-10-20T21:28:38.288Z,15.18
2022-10-20T21:31:06.840Z,15.18
2022-10-20T21:33:37.070Z,15.17
2022-10-20T21:36:06.646Z,15.18
2022-10-20T21:38:35.329Z,15.14
2022-10-20T21:41:04.002Z,15.16
2022-10-20T21:43:32.013Z,15.18
2022-10-20T21:46:10.589Z,15.16
2022-10-20T21:48:39.704Z,15.16
2022-10-20T21:51:09.380Z,15.15
2022-10-20T21:53:37.068Z,15.14
2022-10-20T21:56:05.395Z,15.14
2022-10-20T21:58:33.498Z,15.13
2022-10-20T22:01:01.324Z,15.13
2022-10-20T22:03:29.078Z,15.12
2022-10-20T22:05:58.108Z,15.11
2022-10-20T22:08:25.730Z,15.12
2022-10-20T22:10:53.366Z,15.11
2022-10-20T22:13:21.086Z,15.11
2022-10-20T22:15:48.696Z,15.10
2022-10-20T22:18:16.364Z,15.09
2022-10-20T22:20:43.991Z,15.10
2022-10-20T22:23:13.009Z,15.09
2022-10-20T22:25:40.670Z,15.08
2022-10-20T22:28:08.503Z,15.08
2022-10-20T22:30:36.196Z,15.08
2022-10-20T22:33:03.991Z,15.07
2022-10-20T22:35:31.643Z,15.09
2022-10-20T22:37:59.294Z,15.09
2022-10-20T22:40:28.349Z,15.08
2022-10-20T22:42:56.012Z,15.08
2022-10-20T22:45:23.656Z,15.07
2022-10-20T22:47:51.325Z,15.09
2022-10-20T22:50:19.213Z,15.08
2022-10-20T22:52:46.949Z,15.08
2022-10-20T22:55:14.627Z,15.08
2022-10-20T22:57:47.497Z,15.08
2022-10-20T23:00:16.035Z,15.08
2022-10-20T23:02:43.802Z,15.08
2022-10-20T23:05:11.659Z,15.08
2022-10-20T23:07:40.052Z,15.08
2022-10-20T23:10:08.744Z,15.09
2022-10-20T23:12:36.963Z,15.07
2022-10-20T23:15:07.294Z,15.08
2022-10-20T23:17:35.313Z,15.07
2022-10-20T23:20:03.166Z,15.07
2022-10-20T23:22:30.803Z,15.07
2022-10-20T23:24:58.447Z,15.07
2022-10-20T23:27:26.155Z,15.07
2022-10-20T23:29:53.848Z,15.07
2022-10-20T23:32:22.888Z,15.07
2022-10-20T23:34:50.577Z,15.08
2022-10-20T23:37:19.801Z,15.06
2022-10-20T23:39:47.528Z,15.07
2022-10-20T23:42:15.218Z,15.06
2022-10-20T23:44:43.062Z,15.06
2022-10-20T23:47:10.761Z,15.05
2022-10-20T23:49:39.857Z,15.05
2022-10-20T23:52:07.506Z,15.04
2022-10-20T23:54:35.210Z,15.04
2022-10-20T23:57:02.910Z,15.03
2022-10-20T23:59:30.574Z,15.04
